createdAt,value
2023-04-24T00:00:46.153Z,1.40
2023-04-24T00:03:15.416Z,1.50
2023-04-24T00:05:44.064Z,1.53
2023-04-24T00:08:13.466Z,1.60
2023-04-24T00:10:50.680Z,1.73
2023-04-24T00:13:18.809Z,1.40
2023-04-24T00:15:51.012Z,1.43
2023-04-24T00:18:19.248Z,1.40
2023-04-24T00:20:47.477Z,1.50
2023-04-24T00:23:18.224Z,1.50
2023-04-24T00:25:47.740Z,1.40
2023-04-24T00:28:16.997Z,1.60
2023-04-24T00:30:46.452Z,1.60
2023-04-24T00:33:14.656Z,1.50
2023-04-24T00:35:42.725Z,1.47
2023-04-24T00:38:13.368Z,1.60
2023-04-24T00:40:45.138Z,1.60
2023-04-24T00:43:18.334Z,1.77
2023-04-24T00:45:49.887Z,1.37
2023-04-24T00:48:20.354Z,1.60
2023-04-24T00:50:49.545Z,1.60
2023-04-24T00:53:17.646Z,1.80
2023-04-24T00:55:52.158Z,1.97
2023-04-24T00:58:20.798Z,1.70
2023-04-24T01:00:52.347Z,1.50
2023-04-24T01:03:22.294Z,1.70
2023-04-24T01:05:51.550Z,1.63
2023-04-24T01:08:21.744Z,1.63
2023-04-24T01:10:53.123Z,1.60
2023-04-24T01:13:23.030Z,1.53
2023-04-24T01:15:52.063Z,1.63
2023-04-24T01:18:22.262Z,1.83
2023-04-24T01:20:53.191Z,1.60
2023-04-24T01:23:25.546Z,1.50
2023-04-24T01:25:54.711Z,1.53
2023-04-24T01:28:24.402Z,1.50
2023-04-24T01:30:53.165Z,1.40
2023-04-24T01:33:26.064Z,1.57
2023-04-24T01:35:54.869Z,1.57
2023-04-24T01:38:27.996Z,1.40
2023-04-24T01:40:57.605Z,1.67
2023-04-24T01:43:27.579Z,1.43
2023-04-24T01:45:55.706Z,1.40
2023-04-24T01:48:25.350Z,1.50
2023-04-24T01:50:56.893Z,1.40
2023-04-24T01:53:26.387Z,1.27
2023-04-24T01:55:54.635Z,1.60
2023-04-24T01:58:23.419Z,1.20
2023-04-24T02:00:54.008Z,1.27
2023-04-24T02:03:22.187Z,1.40
2023-04-24T02:05:50.336Z,1.50
2023-04-24T02:08:22.317Z,1.70
2023-04-24T02:10:53.086Z,1.20
2023-04-24T02:13:26.344Z,1.50
2023-04-24T02:15:54.850Z,1.40
2023-04-24T02:18:23.956Z,1.50
2023-04-24T02:20:54.841Z,1.50
2023-04-24T02:23:23.552Z,1.30
2023-04-24T02:25:54.699Z,1.20
2023-04-24T02:28:22.717Z,1.60
2023-04-24T02:30:52.870Z,1.50
2023-04-24T02:33:22.167Z,1.50
2023-04-24T02:35:52.512Z,1.80
2023-04-24T02:38:21.639Z,1.60
2023-04-24T02:40:55.509Z,1.70
2023-04-24T02:43:31.741Z,1.30
2023-04-24T02:46:02.291Z,1.20
2023-04-24T02:48:34.232Z,1.40
2023-04-24T02:51:04.929Z,1.20
2023-04-24T02:53:34.211Z,1.27
2023-04-24T02:56:02.355Z,1.53
2023-04-24T02:58:33.036Z,1.50
2023-04-24T03:01:03.069Z,1.47
2023-04-24T03:03:31.485Z,1.30
2023-04-24T03:06:00.467Z,1.73
2023-04-24T03:08:29.997Z,1.50
2023-04-24T03:11:22.062Z,1.40
2023-04-24T03:16:38.375Z,1.67
2023-04-24T03:19:09.135Z,1.30
2023-04-24T03:21:49.012Z,1.40
2023-04-24T03:24:17.129Z,1.40
2023-04-24T03:26:48.310Z,1.40
2023-04-24T03:29:17.753Z,1.40
2023-04-24T03:31:49.543Z,2.00
2023-04-24T03:34:17.965Z,1.40
2023-04-24T03:37:02.033Z,1.30
2023-04-24T03:39:35.991Z,1.57
2023-04-24T03:42:04.090Z,1.30
2023-04-24T03:44:43.938Z,1.60
2023-04-24T03:47:11.983Z,1.50
2023-04-24T03:49:41.345Z,1.23
2023-04-24T03:52:11.459Z,1.60
2023-04-24T03:55:13.919Z,1.33
2023-04-24T03:57:44.960Z,1.70
2023-04-24T04:00:27.058Z,1.60
2023-04-24T04:02:58.834Z,1.50
2023-04-24T04:05:31.880Z,1.20
2023-04-24T04:08:00.532Z,1.47
2023-04-24T04:10:30.051Z,1.30
2023-04-24T04:13:02.098Z,1.27
2023-04-24T04:15:31.618Z,1.40
2023-04-24T04:18:01.285Z,1.20
2023-04-24T04:21:01.141Z,1.30
2023-04-24T04:26:33.844Z,1.43
2023-04-24T04:29:03.071Z,1.10
2023-04-24T04:31:33.725Z,1.27
2023-04-24T04:34:02.687Z,1.40
2023-04-24T04:36:31.547Z,1.60
2023-04-24T04:39:00.464Z,1.20
2023-04-24T04:41:36.333Z,1.27
2023-04-24T04:44:06.072Z,1.10
2023-04-24T04:46:35.747Z,1.33
2023-04-24T04:49:03.938Z,1.20
2023-04-24T04:51:32.103Z,1.50
2023-04-24T04:54:00.249Z,1.50
2023-04-24T04:56:28.891Z,1.40
2023-04-24T04:59:00.638Z,1.77
2023-04-24T05:01:53.419Z,1.63
2023-04-24T05:04:26.077Z,1.50
2023-04-24T05:06:55.499Z,1.80
2023-04-24T05:09:23.531Z,1.97
2023-04-24T05:12:00.653Z,2.27
2023-04-24T05:14:28.713Z,2.00
2023-04-24T05:17:20.444Z,1.70
2023-04-24T05:20:07.455Z,1.40
2023-04-24T05:22:52.510Z,1.40
2023-04-24T05:25:22.246Z,1.70
2023-04-24T05:27:50.344Z,1.43
2023-04-24T05:30:18.610Z,1.43
2023-04-24T05:33:26.810Z,1.70
2023-04-24T05:35:57.394Z,1.70
2023-04-24T05:38:47.484Z,1.60
2023-04-24T05:41:26.960Z,1.60
2023-04-24T05:43:57.389Z,1.73
2023-04-24T05:49:21.426Z,1.70
2023-04-24T05:51:53.667Z,1.23
2023-04-24T05:54:40.649Z,1.40
2023-04-24T05:57:16.172Z,1.40
2023-04-24T05:59:54.253Z,1.40
2023-04-24T06:02:23.155Z,2.00
2023-04-24T06:04:56.562Z,1.60
2023-04-24T06:07:24.758Z,1.60
2023-04-24T06:09:53.844Z,1.30
2023-04-24T06:12:22.232Z,1.30
2023-04-24T06:14:53.617Z,1.60
2023-04-24T06:17:28.340Z,1.70
2023-04-24T06:19:57.901Z,1.40
2023-04-24T06:22:27.548Z,1.37
2023-04-24T06:24:57.499Z,1.57
2023-04-24T06:27:25.846Z,1.60
2023-04-24T06:29:56.205Z,1.67
2023-04-24T06:32:25.321Z,1.30
2023-04-24T06:35:23.734Z,1.50
2023-04-24T06:38:28.719Z,1.50
2023-04-24T06:40:59.118Z,1.73
2023-04-24T06:43:29.424Z,1.30
2023-04-24T06:45:59.676Z,1.43
2023-04-24T06:48:29.036Z,1.77
2023-04-24T06:51:03.405Z,1.50
2023-04-24T06:53:33.353Z,1.47
2023-04-24T06:56:02.879Z,1.50
2023-04-24T06:59:11.660Z,1.70
2023-04-24T07:01:48.547Z,1.80
2023-04-24T07:04:19.170Z,1.43
2023-04-24T07:07:42.989Z,1.50
2023-04-24T07:10:14.122Z,1.70
2023-04-24T07:12:42.577Z,1.87
2023-04-24T07:15:12.795Z,1.57
2023-04-24T07:17:45.824Z,1.30
2023-04-24T07:20:15.490Z,1.47
2023-04-24T07:22:44.887Z,1.60
2023-04-24T07:25:42.723Z,1.60
2023-04-24T07:28:10.793Z,1.80
2023-04-24T07:30:38.814Z,1.50
2023-04-24T07:33:08.111Z,1.50
2023-04-24T07:35:37.138Z,1.40
2023-04-24T07:38:32.045Z,1.80
2023-04-24T07:41:03.101Z,1.50
2023-04-24T07:43:48.262Z,1.47
2023-04-24T07:46:28.619Z,1.60
2023-04-24T07:49:12.942Z,1.70
2023-04-24T07:51:43.901Z,1.90
2023-04-24T07:54:13.434Z,1.80
2023-04-24T07:56:56.732Z,1.90
2023-04-24T07:59:29.293Z,2.03
2023-04-24T08:02:07.263Z,2.30
2023-04-24T08:04:40.288Z,2.57
2023-04-24T08:07:20.894Z,2.67
2023-04-24T08:09:50.161Z,2.10
2023-04-24T08:12:20.726Z,2.57
2023-04-24T08:14:50.091Z,2.70
2023-04-24T08:17:19.318Z,2.90
2023-04-24T08:19:49.562Z,2.97
2023-04-24T08:22:18.411Z,2.60
2023-04-24T08:25:08.303Z,3.20
2023-04-24T08:28:03.770Z,2.80
2023-04-24T08:33:29.168Z,3.20
2023-04-24T08:36:01.780Z,3.40
2023-04-24T08:38:37.541Z,3.00
2023-04-24T08:41:17.331Z,5.17
2023-04-24T08:43:53.746Z,3.13
2023-04-24T08:46:22.435Z,2.97
2023-04-24T08:48:58.577Z,3.60
2023-04-24T08:51:29.826Z,3.07
2023-04-24T08:54:00.205Z,2.93
2023-04-24T08:56:41.184Z,3.03
2023-04-24T08:59:41.609Z,3.10
2023-04-24T09:02:13.129Z,2.63
2023-04-24T09:04:44.609Z,2.40
2023-04-24T09:07:16.555Z,1.90
2023-04-24T09:09:55.705Z,2.40
2023-04-24T09:12:31.335Z,2.00
2023-04-24T09:15:01.826Z,2.13
2023-04-24T09:17:30.599Z,2.20
2023-04-24T09:20:02.294Z,2.40
2023-04-24T09:22:32.496Z,1.90
2023-04-24T09:25:11.981Z,2.03
2023-04-24T09:27:53.304Z,2.23
2023-04-24T09:30:24.845Z,2.00
2023-04-24T09:33:38.538Z,2.20
2023-04-24T09:36:09.482Z,2.20
2023-04-24T09:38:53.136Z,2.50
2023-04-24T09:42:05.734Z,2.70
2023-04-24T09:44:37.448Z,2.33
2023-04-24T09:47:12.139Z,2.27
2023-04-24T09:49:42.667Z,2.20
2023-04-24T09:52:14.570Z,2.37
2023-04-24T09:54:55.247Z,2.20
2023-04-24T09:57:31.520Z,2.27
2023-04-24T10:00:02.361Z,2.30
2023-04-24T10:02:35.868Z,2.37
2023-04-24T10:05:09.514Z,2.50
2023-04-24T10:07:44.304Z,2.87
2023-04-24T10:10:27.348Z,2.80
2023-04-24T10:12:56.892Z,2.40
2023-04-24T10:15:24.992Z,2.87
2023-04-24T10:18:01.638Z,2.60
2023-04-24T10:20:32.808Z,2.87
2023-04-24T10:23:04.856Z,2.37
2023-04-24T10:25:35.587Z,2.67
2023-04-24T10:28:08.398Z,3.10
2023-04-24T10:30:41.995Z,2.30
2023-04-24T10:33:14.546Z,2.47
2023-04-24T10:35:50.307Z,2.60
2023-04-24T10:38:26.431Z,2.47
2023-04-24T10:41:23.860Z,2.23
2023-04-24T10:44:13.954Z,2.30
2023-04-24T10:46:54.013Z,2.90
2023-04-24T10:49:38.914Z,2.57
2023-04-24T10:52:08.755Z,2.33
2023-04-24T10:54:49.969Z,2.20
2023-04-24T11:00:20.578Z,2.77
2023-04-24T11:02:59.500Z,2.50
2023-04-24T11:05:41.501Z,2.30
2023-04-24T11:09:06.217Z,2.00
2023-04-24T11:15:34.527Z,2.20
2023-04-24T11:18:23.926Z,1.90
2023-04-24T11:21:17.368Z,1.87
2023-04-24T11:23:52.958Z,2.97
2023-04-24T11:26:25.767Z,2.40
2023-04-24T11:29:12.534Z,1.80
2023-04-24T11:31:50.749Z,2.47
2023-04-24T11:34:21.398Z,2.10
2023-04-24T11:37:34.546Z,2.30
2023-04-24T11:40:11.056Z,2.10
2023-04-24T11:42:42.066Z,2.37
2023-04-24T11:45:40.814Z,3.03
2023-04-24T11:48:09.467Z,2.83
2023-04-24T11:50:41.275Z,2.50
2023-04-24T11:53:12.007Z,2.70
2023-04-24T11:55:41.525Z,2.10
2023-04-24T11:58:14.974Z,2.00
2023-04-24T12:00:43.217Z,2.00
2023-04-24T12:03:13.862Z,1.73
2023-04-24T12:05:46.261Z,1.40
2023-04-24T12:08:44.590Z,1.37
2023-04-24T12:11:22.149Z,1.20
2023-04-24T12:13:51.358Z,1.20
2023-04-24T12:16:19.580Z,1.40
2023-04-24T12:18:54.135Z,1.60
2023-04-24T12:21:27.477Z,1.70
2023-04-24T12:24:03.476Z,1.30
2023-04-24T12:26:32.873Z,1.70
2023-04-24T12:29:06.325Z,1.40
2023-04-24T12:31:34.832Z,1.30
2023-04-24T12:34:06.315Z,1.20
2023-04-24T12:36:43.631Z,1.20
2023-04-24T12:39:21.606Z,1.47
2023-04-24T12:42:05.178Z,1.10
2023-04-24T12:47:29.704Z,1.10
2023-04-24T12:50:05.164Z,1.10
2023-04-24T12:52:35.853Z,1.00
2023-04-24T12:55:14.898Z,1.00
2023-04-24T12:57:44.846Z,1.10
2023-04-24T13:00:40.489Z,0.90
2023-04-24T13:03:10.856Z,0.90
2023-04-24T13:05:40.327Z,1.00
2023-04-24T13:08:09.634Z,0.90
2023-04-24T13:10:38.012Z,0.90
2023-04-24T13:13:28.811Z,0.80
2023-04-24T13:16:04.811Z,0.80
2023-04-24T13:21:44.681Z,1.00
2023-04-24T13:24:29.238Z,1.60
2023-04-24T13:26:58.609Z,1.00
2023-04-24T13:29:39.075Z,1.10
2023-04-24T13:32:48.243Z,0.90
2023-04-24T13:35:26.977Z,1.00
2023-04-24T13:37:57.554Z,0.80
2023-04-24T13:44:04.168Z,0.87
2023-04-24T13:49:16.829Z,0.90
2023-04-24T13:52:01.055Z,0.90
2023-04-24T13:54:44.976Z,1.23
2023-04-24T13:57:14.539Z,1.20
2023-04-24T14:02:54.184Z,1.10
2023-04-24T14:05:23.252Z,1.00
2023-04-24T14:07:52.519Z,1.03
2023-04-24T14:10:23.143Z,1.10
2023-04-24T14:13:04.742Z,1.20
2023-04-24T14:15:32.942Z,0.90
2023-04-24T14:18:03.703Z,1.30
2023-04-24T14:20:38.122Z,1.30
2023-04-24T14:23:06.540Z,1.50
2023-04-24T14:25:36.687Z,1.53
2023-04-24T14:28:06.385Z,1.43
2023-04-24T14:30:34.469Z,1.70
2023-04-24T14:33:16.013Z,1.63
2023-04-24T14:35:51.176Z,1.93
2023-04-24T14:38:19.677Z,1.73
2023-04-24T14:43:18.614Z,1.50
2023-04-24T14:45:46.736Z,1.47
2023-04-24T14:48:18.034Z,1.70
2023-04-24T14:50:46.892Z,2.07
2023-04-24T14:53:14.993Z,1.97
2023-04-24T14:55:43.017Z,1.83
2023-04-24T14:58:11.298Z,1.87
2023-04-24T15:00:39.450Z,2.00
2023-04-24T15:03:08.464Z,2.10
2023-04-24T15:05:38.578Z,2.10
2023-04-24T15:08:07.285Z,1.60
2023-04-24T15:10:36.172Z,4.60
2023-04-24T15:13:12.080Z,2.60
2023-04-24T15:15:55.464Z,2.57
2023-04-24T15:18:23.881Z,2.53
2023-04-24T15:21:08.145Z,2.10
2023-04-24T15:24:05.532Z,2.00
2023-04-24T15:26:58.243Z,2.30
2023-04-24T15:29:29.995Z,2.30
2023-04-24T15:32:08.301Z,2.20
2023-04-24T15:34:41.931Z,1.93
2023-04-24T15:41:17.323Z,2.10
2023-04-24T15:43:46.939Z,3.30
2023-04-24T15:46:21.974Z,2.40
2023-04-24T15:49:09.366Z,2.13
2023-04-24T15:51:38.149Z,1.90
2023-04-24T15:54:09.087Z,2.20
2023-04-24T15:56:37.620Z,2.30
2023-04-24T15:59:09.381Z,1.97
2023-04-24T16:01:48.544Z,2.57
2023-04-24T16:04:17.200Z,2.40
2023-04-24T16:06:48.604Z,2.50
2023-04-24T16:09:16.762Z,2.70
2023-04-24T16:12:12.610Z,3.60
2023-04-24T16:14:47.437Z,2.30
2023-04-24T16:17:17.392Z,2.73
2023-04-24T16:20:02.322Z,2.30
2023-04-24T16:22:32.110Z,2.50
2023-04-24T16:25:00.569Z,2.67
2023-04-24T16:27:30.163Z,2.60
2023-04-24T16:30:03.398Z,2.70
2023-04-24T16:33:05.221Z,2.80
2023-04-24T16:35:33.934Z,2.67
2023-04-24T16:38:05.860Z,2.60
2023-04-24T16:40:39.442Z,2.83
2023-04-24T16:43:12.199Z,2.90
2023-04-24T16:45:44.480Z,2.80
2023-04-24T16:48:16.147Z,2.87
2023-04-24T16:50:49.085Z,3.80
2023-04-24T16:53:40.550Z,4.00
2023-04-24T16:56:09.922Z,2.67
2023-04-24T16:58:39.432Z,3.40
2023-04-24T17:01:12.424Z,3.70
2023-04-24T17:03:47.595Z,3.10
2023-04-24T17:13:38.270Z,3.13
2023-04-24T17:16:07.837Z,3.40
2023-04-24T17:18:39.335Z,3.40
2023-04-24T17:21:09.133Z,3.47
2023-04-24T17:24:13.227Z,3.40
2023-04-24T17:26:43.639Z,5.67
2023-04-24T17:29:15.633Z,4.03
2023-04-24T17:31:47.395Z,3.57
2023-04-24T17:34:23.549Z,3.13
2023-04-24T17:36:54.957Z,4.10
2023-04-24T17:39:26.855Z,4.67
2023-04-24T17:41:59.437Z,3.77
2023-04-24T17:44:27.727Z,4.10
2023-04-24T17:46:58.246Z,3.87
2023-04-24T17:49:38.615Z,3.90
2023-04-24T17:52:07.852Z,4.00
2023-04-24T17:54:43.550Z,4.00
2023-04-24T17:57:13.384Z,3.80
2023-04-24T17:59:52.833Z,3.57
2023-04-24T18:02:23.706Z,3.53
2023-04-24T18:04:56.429Z,3.63
2023-04-24T18:07:24.564Z,3.63
2023-04-24T18:09:56.089Z,4.83
2023-04-24T18:13:04.082Z,3.00
2023-04-24T18:15:36.784Z,2.90
2023-04-24T18:18:08.983Z,2.93
2023-04-24T18:20:47.242Z,3.30
2023-04-24T18:26:24.748Z,3.83
2023-04-24T18:28:52.908Z,3.87
2023-04-24T18:31:21.444Z,5.13
2023-04-24T18:33:49.923Z,4.20
2023-04-24T18:36:19.386Z,4.20
2023-04-24T18:38:47.595Z,3.97
2023-04-24T18:41:16.733Z,4.43
2023-04-24T18:43:44.748Z,8.73
2023-04-24T18:46:13.006Z,14.30
2023-04-24T18:48:41.110Z,10.43
2023-04-24T18:51:09.979Z,4.77
2023-04-24T18:53:39.423Z,5.07
2023-04-24T18:56:07.760Z,4.57
2023-04-24T18:58:35.992Z,4.60
2023-04-24T19:01:06.820Z,4.67
2023-04-24T19:03:36.693Z,5.00
2023-04-24T19:06:05.036Z,4.40
2023-04-24T19:08:33.237Z,4.70
2023-04-24T19:11:02.791Z,4.47
2023-04-24T19:13:33.756Z,4.73
2023-04-24T19:16:05.557Z,5.00
2023-04-24T19:19:05.727Z,5.80
2023-04-24T19:21:36.248Z,5.30
2023-04-24T19:24:04.657Z,4.80
2023-04-24T19:26:34.323Z,5.30
2023-04-24T19:29:03.773Z,5.30
2023-04-24T19:31:32.126Z,5.27
2023-04-24T19:34:05.361Z,4.57
2023-04-24T19:36:52.519Z,5.53
2023-04-24T19:39:23.160Z,5.50
2023-04-24T19:41:52.694Z,5.07
2023-04-24T19:44:20.911Z,5.30
2023-04-24T19:46:51.146Z,4.80
2023-04-24T19:49:20.976Z,4.87
2023-04-24T19:52:16.856Z,6.00
2023-04-24T19:55:10.154Z,5.20
2023-04-24T19:57:40.305Z,4.63
2023-04-24T20:00:09.611Z,4.80
2023-04-24T20:02:37.811Z,5.03
2023-04-24T20:05:07.179Z,29.23
2023-04-24T20:07:37.930Z,5.57
2023-04-24T20:10:07.066Z,5.33
2023-04-24T20:12:36.269Z,5.83
2023-04-24T20:15:06.628Z,5.87
2023-04-24T20:17:35.070Z,5.20
2023-04-24T20:20:03.723Z,4.93
2023-04-24T20:22:35.405Z,5.27
2023-04-24T20:25:04.101Z,5.43
2023-04-24T20:27:32.680Z,5.40
2023-04-24T20:30:00.970Z,5.13
2023-04-24T20:32:30.731Z,5.97
2023-04-24T20:34:58.830Z,5.33
2023-04-24T20:37:26.933Z,5.20
2023-04-24T20:40:22.205Z,5.30
2023-04-24T20:42:50.513Z,5.20
2023-04-24T20:45:19.036Z,5.07
2023-04-24T20:47:50.623Z,4.90
2023-04-24T20:50:19.488Z,5.40
2023-04-24T20:52:47.807Z,5.67
2023-04-24T20:55:17.041Z,5.33
2023-04-24T20:57:45.314Z,5.40
2023-04-24T21:00:14.831Z,5.20
2023-04-24T21:02:43.118Z,4.83
2023-04-24T21:05:12.870Z,5.10
2023-04-24T21:07:40.881Z,5.60
2023-04-24T21:10:13.416Z,5.10
2023-04-24T21:12:41.718Z,5.63
2023-04-24T21:15:10.530Z,5.40
2023-04-24T21:17:39.490Z,5.07
2023-04-24T21:20:09.191Z,5.07
2023-04-24T21:22:38.837Z,4.73
2023-04-24T21:25:08.511Z,5.20
2023-04-24T21:27:37.696Z,4.83
2023-04-24T21:30:06.836Z,5.10
2023-04-24T21:32:35.064Z,5.40
2023-04-24T21:35:03.318Z,4.73
2023-04-24T21:37:33.606Z,4.63
2023-04-24T21:40:14.320Z,5.20
2023-04-24T21:42:44.079Z,4.90
2023-04-24T21:45:12.810Z,4.90
2023-04-24T21:47:41.034Z,4.37
2023-04-24T21:50:10.531Z,5.30
2023-04-24T21:52:38.624Z,5.50
2023-04-24T21:55:09.239Z,5.13
2023-04-24T21:57:37.476Z,5.80
2023-04-24T22:00:08.440Z,5.03
2023-04-24T22:02:36.864Z,5.60
2023-04-24T22:05:06.025Z,5.73
2023-04-24T22:07:36.512Z,5.20
2023-04-24T22:10:05.766Z,5.60
2023-04-24T22:12:36.049Z,5.30
2023-04-24T22:15:05.687Z,5.80
2023-04-24T22:17:34.677Z,6.20
2023-04-24T22:20:03.222Z,6.57
2023-04-24T22:22:31.500Z,5.90
2023-04-24T22:24:59.850Z,6.10
2023-04-24T22:27:27.958Z,6.23
2023-04-24T22:29:57.847Z,6.67
2023-04-24T22:32:25.981Z,6.13
2023-04-24T22:34:54.574Z,7.00
2023-04-24T22:37:22.737Z,6.93
2023-04-24T22:39:50.978Z,7.03
2023-04-24T22:42:19.254Z,7.60
2023-04-24T22:44:47.368Z,7.10
2023-04-24T22:47:17.407Z,6.70
2023-04-24T22:49:46.182Z,6.33
2023-04-24T22:52:14.616Z,6.87
2023-04-24T22:54:42.827Z,6.37
2023-04-24T22:57:12.520Z,6.80
2023-04-24T22:59:40.777Z,7.03
2023-04-24T23:02:08.991Z,7.47
2023-04-24T23:04:38.491Z,6.93
2023-04-24T23:07:07.418Z,6.93
2023-04-24T23:09:37.221Z,7.10
2023-04-24T23:12:05.895Z,6.67
2023-04-24T23:14:34.523Z,6.60
2023-04-24T23:17:02.711Z,6.70
2023-04-24T23:19:30.975Z,7.40
2023-04-24T23:22:00.882Z,7.13
2023-04-24T23:24:29.758Z,7.20
2023-04-24T23:26:57.759Z,7.00
2023-04-24T23:29:26.272Z,7.43
2023-04-24T23:31:54.589Z,7.87
2023-04-24T23:34:23.044Z,8.60
2023-04-24T23:36:52.568Z,7.93
2023-04-24T23:39:22.133Z,8.43
2023-04-24T23:41:50.364Z,8.03
2023-04-24T23:44:18.450Z,7.80
2023-04-24T23:46:47.870Z,8.27
2023-04-24T23:49:24.989Z,8.50
2023-04-24T23:51:54.881Z,8.80
2023-04-24T23:54:33.487Z,8.07
2023-04-24T23:57:04.854Z,9.27
2023-04-24T23:59:35.857Z,8.47
